sensor_id;sensor_type;location;lat;lon;timestamp;P1;durP1;ratioP1;P2;durP2;ratioP2
68866;SDS011;56451;44.804;20.476;2023-10-09T00:01:04;5.22;;;2.85;;
68866;SDS011;56451;44.804;20.476;2023-10-09T00:03:41;3.97;;;2.30;;
68866;SDS011;56451;44.804;20.476;2023-10-09T00:06:09;4.30;;;2.40;;
68866;SDS011;56451;44.804;20.476;2023-10-09T00:08:38;4.78;;;2.30;;
68866;SDS011;56451;44.804;20.476;2023-10-09T00:11:10;4.45;;;2.38;;
68866;SDS011;56451;44.804;20.476;2023-10-09T00:13:42;6.57;;;2.40;;
68866;SDS011;56451;44.804;20.476;2023-10-09T00:16:15;4.97;;;2.08;;
68866;SDS011;56451;44.804;20.476;2023-10-09T00:18:42;4.73;;;2.00;;
68866;SDS011;56451;44.804;20.476;2023-10-09T00:21:15;3.72;;;2.15;;
68866;SDS011;56451;44.804;20.476;2023-10-09T00:23:41;3.17;;;1.90;;
68866;SDS011;56451;44.804;20.476;2023-10-09T00:26:08;3.58;;;2.17;;
68866;SDS011;56451;44.804;20.476;2023-10-09T00:28:40;6.15;;;1.80;;
68866;SDS011;56451;44.804;20.476;2023-10-09T00:31:15;3.13;;;1.60;;
68866;SDS011;56451;44.804;20.476;2023-10-09T00:33:42;6.30;;;1.50;;
68866;SDS011;56451;44.804;20.476;2023-10-09T00:36:09;3.78;;;1.60;;
68866;SDS011;56451;44.804;20.476;2023-10-09T00:38:36;5.10;;;1.95;;
68866;SDS011;56451;44.804;20.476;2023-10-09T00:41:10;3.75;;;2.03;;
68866;SDS011;56451;44.804;20.476;2023-10-09T00:43:36;2.73;;;1.80;;
68866;SDS011;56451;44.804;20.476;2023-10-09T00:46:04;3.08;;;1.70;;
68866;SDS011;56451;44.804;20.476;2023-10-09T00:48:50;4.60;;;2.20;;
68866;SDS011;56451;44.804;20.476;2023-10-09T00:51:19;5.97;;;2.28;;
68866;SDS011;56451;44.804;20.476;2023-10-09T00:56:45;3.67;;;2.37;;
68866;SDS011;56451;44.804;20.476;2023-10-09T00:59:17;3.70;;;1.98;;
68866;SDS011;56451;44.804;20.476;2023-10-09T01:01:48;7.15;;;2.53;;
68866;SDS011;56451;44.804;20.476;2023-10-09T01:04:30;4.55;;;2.70;;
68866;SDS011;56451;44.804;20.476;2023-10-09T01:07:02;4.75;;;2.35;;
68866;SDS011;56451;44.804;20.476;2023-10-09T01:09:41;4.10;;;1.83;;
68866;SDS011;56451;44.804;20.476;2023-10-09T01:12:09;5.40;;;2.20;;
68866;SDS011;56451;44.804;20.476;2023-10-09T01:14:43;7.45;;;2.40;;
68866;SDS011;56451;44.804;20.476;2023-10-09T01:17:09;4.97;;;2.42;;
68866;SDS011;56451;44.804;20.476;2023-10-09T01:19:36;3.90;;;2.58;;
68866;SDS011;56451;44.804;20.476;2023-10-09T01:22:03;4.67;;;2.60;;
68866;SDS011;56451;44.804;20.476;2023-10-09T01:24:40;6.25;;;2.72;;
68866;SDS011;56451;44.804;20.476;2023-10-09T01:27:06;5.40;;;2.95;;
68866;SDS011;56451;44.804;20.476;2023-10-09T01:29:41;5.05;;;3.13;;
68866;SDS011;56451;44.804;20.476;2023-10-09T01:32:07;6.05;;;2.58;;
68866;SDS011;56451;44.804;20.476;2023-10-09T01:34:42;4.87;;;2.80;;
68866;SDS011;56451;44.804;20.476;2023-10-09T01:37:09;5.88;;;3.20;;
68866;SDS011;56451;44.804;20.476;2023-10-09T01:39:57;7.90;;;3.15;;
68866;SDS011;56451;44.804;20.476;2023-10-09T01:42:25;5.45;;;3.05;;
68866;SDS011;56451;44.804;20.476;2023-10-09T01:45:12;4.55;;;2.47;;
68866;SDS011;56451;44.804;20.476;2023-10-09T01:47:54;6.57;;;2.70;;
68866;SDS011;56451;44.804;20.476;2023-10-09T01:50:20;7.30;;;3.15;;
68866;SDS011;56451;44.804;20.476;2023-10-09T01:53:02;5.30;;;3.22;;
68866;SDS011;56451;44.804;20.476;2023-10-09T01:55:31;6.65;;;3.20;;
68866;SDS011;56451;44.804;20.476;2023-10-09T01:58:06;7.03;;;3.45;;
68866;SDS011;56451;44.804;20.476;2023-10-09T02:00:48;7.33;;;3.20;;
68866;SDS011;56451;44.804;20.476;2023-10-09T02:03:19;6.57;;;3.65;;
68866;SDS011;56451;44.804;20.476;2023-10-09T02:05:49;6.22;;;3.60;;
68866;SDS011;56451;44.804;20.476;2023-10-09T02:08:19;7.25;;;3.88;;
68866;SDS011;56451;44.804;20.476;2023-10-09T02:10:52;5.82;;;3.60;;
68866;SDS011;56451;44.804;20.476;2023-10-09T02:13:22;9.30;;;3.90;;
68866;SDS011;56451;44.804;20.476;2023-10-09T02:15:58;6.72;;;4.03;;
68866;SDS011;56451;44.804;20.476;2023-10-09T02:18:41;7.43;;;4.18;;
68866;SDS011;56451;44.804;20.476;2023-10-09T02:21:19;6.13;;;3.63;;
68866;SDS011;56451;44.804;20.476;2023-10-09T02:23:59;6.78;;;3.95;;
68866;SDS011;56451;44.804;20.476;2023-10-09T02:26:30;7.43;;;4.27;;
68866;SDS011;56451;44.804;20.476;2023-10-09T02:29:05;8.93;;;4.18;;
68866;SDS011;56451;44.804;20.476;2023-10-09T02:31:41;8.10;;;4.38;;
68866;SDS011;56451;44.804;20.476;2023-10-09T02:34:12;7.00;;;4.05;;
68866;SDS011;56451;44.804;20.476;2023-10-09T02:36:41;6.82;;;3.78;;
68866;SDS011;56451;44.804;20.476;2023-10-09T02:39:10;6.93;;;3.90;;
68866;SDS011;56451;44.804;20.476;2023-10-09T02:41:49;7.40;;;3.58;;
68866;SDS011;56451;44.804;20.476;2023-10-09T02:44:16;6.40;;;4.20;;
68866;SDS011;56451;44.804;20.476;2023-10-09T02:46:42;6.93;;;3.72;;
68866;SDS011;56451;44.804;20.476;2023-10-09T02:49:10;7.35;;;4.00;;
68866;SDS011;56451;44.804;20.476;2023-10-09T02:51:41;7.67;;;3.83;;
68866;SDS011;56451;44.804;20.476;2023-10-09T02:54:08;7.10;;;3.85;;
68866;SDS011;56451;44.804;20.476;2023-10-09T02:56:49;6.65;;;4.30;;
68866;SDS011;56451;44.804;20.476;2023-10-09T02:59:33;8.98;;;3.95;;
68866;SDS011;56451;44.804;20.476;2023-10-09T03:02:07;5.80;;;3.85;;
68866;SDS011;56451;44.804;20.476;2023-10-09T03:04:33;7.13;;;4.00;;
68866;SDS011;56451;44.804;20.476;2023-10-09T03:06:59;5.75;;;3.58;;
68866;SDS011;56451;44.804;20.476;2023-10-09T03:09:26;5.88;;;3.58;;
68866;SDS011;56451;44.804;20.476;2023-10-09T03:11:54;8.55;;;3.75;;
68866;SDS011;56451;44.804;20.476;2023-10-09T03:14:31;7.95;;;3.80;;
68866;SDS011;56451;44.804;20.476;2023-10-09T03:17:03;6.87;;;3.87;;
68866;SDS011;56451;44.804;20.476;2023-10-09T03:19:33;5.93;;;3.80;;
68866;SDS011;56451;44.804;20.476;2023-10-09T03:22:03;7.65;;;3.85;;
68866;SDS011;56451;44.804;20.476;2023-10-09T03:24:30;8.18;;;3.70;;
68866;SDS011;56451;44.804;20.476;2023-10-09T03:26:57;6.10;;;3.38;;
68866;SDS011;56451;44.804;20.476;2023-10-09T03:29:24;7.93;;;4.13;;
68866;SDS011;56451;44.804;20.476;2023-10-09T03:34:46;8.80;;;3.70;;
68866;SDS011;56451;44.804;20.476;2023-10-09T03:37:12;8.85;;;4.50;;
68866;SDS011;56451;44.804;20.476;2023-10-09T03:39:53;6.18;;;3.38;;
68866;SDS011;56451;44.804;20.476;2023-10-09T03:42:20;6.17;;;3.67;;
68866;SDS011;56451;44.804;20.476;2023-10-09T03:44:47;6.10;;;3.42;;
68866;SDS011;56451;44.804;20.476;2023-10-09T03:47:19;6.35;;;3.28;;
68866;SDS011;56451;44.804;20.476;2023-10-09T03:49:51;7.70;;;3.75;;
68866;SDS011;56451;44.804;20.476;2023-10-09T03:52:18;7.10;;;3.95;;
68866;SDS011;56451;44.804;20.476;2023-10-09T03:54:44;4.80;;;3.33;;
68866;SDS011;56451;44.804;20.476;2023-10-09T03:57:12;8.25;;;3.50;;
68866;SDS011;56451;44.804;20.476;2023-10-09T03:59:45;6.47;;;3.17;;
68866;SDS011;56451;44.804;20.476;2023-10-09T04:02:13;6.82;;;2.50;;
68866;SDS011;56451;44.804;20.476;2023-10-09T04:04:40;4.78;;;2.53;;
68866;SDS011;56451;44.804;20.476;2023-10-09T04:07:15;3.90;;;2.60;;
68866;SDS011;56451;44.804;20.476;2023-10-09T04:09:42;7.85;;;3.03;;
68866;SDS011;56451;44.804;20.476;2023-10-09T04:12:12;6.30;;;2.72;;
68866;SDS011;56451;44.804;20.476;2023-10-09T04:14:46;5.03;;;2.70;;
68866;SDS011;56451;44.804;20.476;2023-10-09T04:17:32;8.35;;;3.40;;
68866;SDS011;56451;44.804;20.476;2023-10-09T04:19:58;5.37;;;2.73;;
68866;SDS011;56451;44.804;20.476;2023-10-09T04:22:43;6.15;;;2.97;;
68866;SDS011;56451;44.804;20.476;2023-10-09T04:25:19;5.07;;;2.95;;
68866;SDS011;56451;44.804;20.476;2023-10-09T04:27:52;6.20;;;3.10;;
68866;SDS011;56451;44.804;20.476;2023-10-09T04:30:39;5.90;;;2.97;;
68866;SDS011;56451;44.804;20.476;2023-10-09T04:33:08;5.93;;;3.27;;
68866;SDS011;56451;44.804;20.476;2023-10-09T04:36:06;5.72;;;2.72;;
68866;SDS011;56451;44.804;20.476;2023-10-09T04:38:45;7.28;;;3.13;;
68866;SDS011;56451;44.804;20.476;2023-10-09T04:41:42;11.05;;;3.63;;
68866;SDS011;56451;44.804;20.476;2023-10-09T04:44:08;5.88;;;3.38;;
68866;SDS011;56451;44.804;20.476;2023-10-09T04:46:55;7.80;;;3.43;;
68866;SDS011;56451;44.804;20.476;2023-10-09T04:49:36;7.20;;;3.45;;
68866;SDS011;56451;44.804;20.476;2023-10-09T04:52:22;8.27;;;3.78;;
68866;SDS011;56451;44.804;20.476;2023-10-09T04:54:50;6.25;;;3.80;;
68866;SDS011;56451;44.804;20.476;2023-10-09T04:57:35;5.70;;;3.45;;
68866;SDS011;56451;44.804;20.476;2023-10-09T05:00:08;6.77;;;3.53;;
68866;SDS011;56451;44.804;20.476;2023-10-09T05:03:08;7.90;;;3.55;;
68866;SDS011;56451;44.804;20.476;2023-10-09T05:05:38;6.47;;;3.67;;
68866;SDS011;56451;44.804;20.476;2023-10-09T05:08:12;8.75;;;3.92;;
68866;SDS011;56451;44.804;20.476;2023-10-09T05:11:02;6.65;;;3.65;;
68866;SDS011;56451;44.804;20.476;2023-10-09T05:13:35;6.67;;;3.50;;
68866;SDS011;56451;44.804;20.476;2023-10-09T05:18:45;7.68;;;3.80;;
68866;SDS011;56451;44.804;20.476;2023-10-09T05:21:24;6.22;;;3.50;;
68866;SDS011;56451;44.804;20.476;2023-10-09T05:24:11;6.95;;;4.10;;
68866;SDS011;56451;44.804;20.476;2023-10-09T05:26:37;7.57;;;4.03;;
68866;SDS011;56451;44.804;20.476;2023-10-09T05:29:17;6.53;;;4.00;;
68866;SDS011;56451;44.804;20.476;2023-10-09T05:31:53;8.23;;;4.00;;
68866;SDS011;56451;44.804;20.476;2023-10-09T05:34:22;6.55;;;3.08;;
68866;SDS011;56451;44.804;20.476;2023-10-09T05:37:03;9.02;;;3.97;;
68866;SDS011;56451;44.804;20.476;2023-10-09T05:40:02;6.97;;;3.77;;
68866;SDS011;56451;44.804;20.476;2023-10-09T05:42:41;7.97;;;4.07;;
68866;SDS011;56451;44.804;20.476;2023-10-09T05:47:47;6.10;;;3.95;;
68866;SDS011;56451;44.804;20.476;2023-10-09T05:50:53;8.80;;;4.20;;
68866;SDS011;56451;44.804;20.476;2023-10-09T05:53:21;7.73;;;3.63;;
68866;SDS011;56451;44.804;20.476;2023-10-09T05:56:06;7.75;;;4.15;;
68866;SDS011;56451;44.804;20.476;2023-10-09T05:58:50;8.13;;;3.92;;
68866;SDS011;56451;44.804;20.476;2023-10-09T06:01:32;8.55;;;3.72;;
68866;SDS011;56451;44.804;20.476;2023-10-09T06:04:16;8.25;;;4.60;;
68866;SDS011;56451;44.804;20.476;2023-10-09T06:06:44;11.47;;;6.20;;
68866;SDS011;56451;44.804;20.476;2023-10-09T06:09:11;9.85;;;4.85;;
68866;SDS011;56451;44.804;20.476;2023-10-09T06:11:40;8.65;;;3.70;;
68866;SDS011;56451;44.804;20.476;2023-10-09T06:14:18;6.65;;;3.40;;
68866;SDS011;56451;44.804;20.476;2023-10-09T06:17:11;6.18;;;3.08;;
68866;SDS011;56451;44.804;20.476;2023-10-09T06:20:04;5.63;;;3.00;;
68866;SDS011;56451;44.804;20.476;2023-10-09T06:22:50;6.80;;;3.67;;
68866;SDS011;56451;44.804;20.476;2023-10-09T06:25:22;7.43;;;3.38;;
68866;SDS011;56451;44.804;20.476;2023-10-09T06:27:58;9.93;;;5.75;;
68866;SDS011;56451;44.804;20.476;2023-10-09T06:30:24;9.00;;;4.13;;
68866;SDS011;56451;44.804;20.476;2023-10-09T06:32:52;9.80;;;3.50;;
68866;SDS011;56451;44.804;20.476;2023-10-09T06:35:36;8.88;;;3.53;;
68866;SDS011;56451;44.804;20.476;2023-10-09T06:38:02;8.95;;;3.08;;
68866;SDS011;56451;44.804;20.476;2023-10-09T06:43:21;5.00;;;2.88;;
68866;SDS011;56451;44.804;20.476;2023-10-09T06:45:50;4.50;;;2.70;;
68866;SDS011;56451;44.804;20.476;2023-10-09T06:48:26;6.78;;;3.05;;
68866;SDS011;56451;44.804;20.476;2023-10-09T06:51:06;12.43;;;3.28;;
68866;SDS011;56451;44.804;20.476;2023-10-09T06:53:44;4.43;;;2.45;;
68866;SDS011;56451;44.804;20.476;2023-10-09T06:56:28;5.93;;;2.78;;
68866;SDS011;56451;44.804;20.476;2023-10-09T06:58:58;4.67;;;2.73;;
68866;SDS011;56451;44.804;20.476;2023-10-09T07:01:48;8.75;;;3.20;;
68866;SDS011;56451;44.804;20.476;2023-10-09T07:04:36;7.57;;;2.90;;
68866;SDS011;56451;44.804;20.476;2023-10-09T07:07:03;8.15;;;2.65;;
68866;SDS011;56451;44.804;20.476;2023-10-09T07:09:46;8.90;;;2.40;;
68866;SDS011;56451;44.804;20.476;2023-10-09T07:12:34;6.10;;;2.90;;
68866;SDS011;56451;44.804;20.476;2023-10-09T07:15:08;5.50;;;3.08;;
68866;SDS011;56451;44.804;20.476;2023-10-09T07:17:34;7.03;;;3.00;;
68866;SDS011;56451;44.804;20.476;2023-10-09T07:19:59;6.22;;;3.60;;
68866;SDS011;56451;44.804;20.476;2023-10-09T07:22:39;6.73;;;3.07;;
68866;SDS011;56451;44.804;20.476;2023-10-09T07:25:18;5.63;;;3.20;;
68866;SDS011;56451;44.804;20.476;2023-10-09T07:28:04;6.82;;;3.45;;
68866;SDS011;56451;44.804;20.476;2023-10-09T07:30:44;6.47;;;3.30;;
68866;SDS011;56451;44.804;20.476;2023-10-09T07:33:11;5.55;;;3.10;;
68866;SDS011;56451;44.804;20.476;2023-10-09T07:35:40;7.90;;;2.83;;
68866;SDS011;56451;44.804;20.476;2023-10-09T07:38:12;6.07;;;2.60;;
68866;SDS011;56451;44.804;20.476;2023-10-09T07:40:46;4.22;;;2.50;;
68866;SDS011;56451;44.804;20.476;2023-10-09T07:43:22;7.20;;;2.70;;
68866;SDS011;56451;44.804;20.476;2023-10-09T07:46:05;5.85;;;3.45;;
68866;SDS011;56451;44.804;20.476;2023-10-09T07:48:50;8.30;;;3.33;;
68866;SDS011;56451;44.804;20.476;2023-10-09T07:51:19;4.30;;;2.92;;
68866;SDS011;56451;44.804;20.476;2023-10-09T07:53:52;5.15;;;2.80;;
68866;SDS011;56451;44.804;20.476;2023-10-09T07:56:32;6.68;;;3.05;;
68866;SDS011;56451;44.804;20.476;2023-10-09T07:59:04;11.00;;;3.45;;
68866;SDS011;56451;44.804;20.476;2023-10-09T08:01:43;7.20;;;2.83;;
68866;SDS011;56451;44.804;20.476;2023-10-09T08:04:28;6.18;;;3.20;;
68866;SDS011;56451;44.804;20.476;2023-10-09T08:07:13;6.32;;;2.80;;
68866;SDS011;56451;44.804;20.476;2023-10-09T08:10:00;6.45;;;2.40;;
68866;SDS011;56451;44.804;20.476;2023-10-09T08:12:45;5.22;;;2.60;;
68866;SDS011;56451;44.804;20.476;2023-10-09T08:15:14;4.33;;;2.30;;
68866;SDS011;56451;44.804;20.476;2023-10-09T08:20:25;5.10;;;2.42;;
68866;SDS011;56451;44.804;20.476;2023-10-09T08:22:55;6.78;;;2.92;;
68866;SDS011;56451;44.804;20.476;2023-10-09T08:25:27;7.82;;;3.05;;
68866;SDS011;56451;44.804;20.476;2023-10-09T08:28:02;5.60;;;2.87;;
68866;SDS011;56451;44.804;20.476;2023-10-09T08:30:41;3.65;;;2.35;;
68866;SDS011;56451;44.804;20.476;2023-10-09T08:33:15;7.65;;;2.70;;
68866;SDS011;56451;44.804;20.476;2023-10-09T08:35:51;21.70;;;4.30;;
68866;SDS011;56451;44.804;20.476;2023-10-09T08:38:21;12.30;;;3.08;;
68866;SDS011;56451;44.804;20.476;2023-10-09T08:40:52;5.87;;;2.20;;
68866;SDS011;56451;44.804;20.476;2023-10-09T08:43:23;6.32;;;2.30;;
68866;SDS011;56451;44.804;20.476;2023-10-09T08:45:51;6.38;;;2.60;;
68866;SDS011;56451;44.804;20.476;2023-10-09T08:48:20;4.05;;;2.00;;
68866;SDS011;56451;44.804;20.476;2023-10-09T08:50:52;5.97;;;2.30;;
68866;SDS011;56451;44.804;20.476;2023-10-09T08:53:21;11.93;;;2.53;;
68866;SDS011;56451;44.804;20.476;2023-10-09T08:55:49;12.10;;;2.83;;
68866;SDS011;56451;44.804;20.476;2023-10-09T08:58:16;10.80;;;2.95;;
68866;SDS011;56451;44.804;20.476;2023-10-09T09:00:50;7.15;;;2.70;;
68866;SDS011;56451;44.804;20.476;2023-10-09T09:03:18;5.53;;;2.40;;
68866;SDS011;56451;44.804;20.476;2023-10-09T09:05:46;6.60;;;3.33;;
68866;SDS011;56451;44.804;20.476;2023-10-09T09:08:25;6.50;;;2.75;;
68866;SDS011;56451;44.804;20.476;2023-10-09T09:11:00;6.45;;;2.25;;
68866;SDS011;56451;44.804;20.476;2023-10-09T09:13:47;4.15;;;1.95;;
68866;SDS011;56451;44.804;20.476;2023-10-09T09:16:19;7.40;;;2.10;;
68866;SDS011;56451;44.804;20.476;2023-10-09T09:18:50;5.90;;;2.00;;
68866;SDS011;56451;44.804;20.476;2023-10-09T09:21:18;3.63;;;2.17;;
68866;SDS011;56451;44.804;20.476;2023-10-09T09:23:53;8.65;;;2.08;;
68866;SDS011;56451;44.804;20.476;2023-10-09T09:29:10;5.80;;;2.40;;
68866;SDS011;56451;44.804;20.476;2023-10-09T09:31:55;4.23;;;2.30;;
68866;SDS011;56451;44.804;20.476;2023-10-09T09:34:48;6.07;;;1.98;;
68866;SDS011;56451;44.804;20.476;2023-10-09T09:37:25;4.72;;;2.20;;
68866;SDS011;56451;44.804;20.476;2023-10-09T09:39:58;6.22;;;2.42;;
68866;SDS011;56451;44.804;20.476;2023-10-09T09:42:29;5.78;;;2.40;;
68866;SDS011;56451;44.804;20.476;2023-10-09T09:45:00;5.40;;;2.07;;
68866;SDS011;56451;44.804;20.476;2023-10-09T09:47:27;4.65;;;2.03;;
68866;SDS011;56451;44.804;20.476;2023-10-09T09:49:56;4.65;;;2.00;;
68866;SDS011;56451;44.804;20.476;2023-10-09T09:52:28;4.90;;;2.15;;
68866;SDS011;56451;44.804;20.476;2023-10-09T09:55:06;8.20;;;2.65;;
68866;SDS011;56451;44.804;20.476;2023-10-09T09:57:40;5.23;;;2.10;;
68866;SDS011;56451;44.804;20.476;2023-10-09T10:00:08;9.10;;;2.45;;
68866;SDS011;56451;44.804;20.476;2023-10-09T10:02:52;4.43;;;2.38;;
68866;SDS011;56451;44.804;20.476;2023-10-09T10:05:24;4.10;;;2.25;;
68866;SDS011;56451;44.804;20.476;2023-10-09T10:07:56;6.68;;;2.40;;
68866;SDS011;56451;44.804;20.476;2023-10-09T10:10:33;5.00;;;2.23;;
68866;SDS011;56451;44.804;20.476;2023-10-09T10:13:03;6.10;;;1.90;;
68866;SDS011;56451;44.804;20.476;2023-10-09T10:21:26;7.20;;;2.65;;
68866;SDS011;56451;44.804;20.476;2023-10-09T10:23:57;6.23;;;2.30;;
68866;SDS011;56451;44.804;20.476;2023-10-09T10:26:36;4.35;;;2.40;;
68866;SDS011;56451;44.804;20.476;2023-10-09T10:29:17;4.82;;;2.60;;
68866;SDS011;56451;44.804;20.476;2023-10-09T10:32:01;5.85;;;2.25;;
68866;SDS011;56451;44.804;20.476;2023-10-09T10:37:20;5.00;;;2.23;;
68866;SDS011;56451;44.804;20.476;2023-10-09T10:39:50;3.42;;;1.70;;
68866;SDS011;56451;44.804;20.476;2023-10-09T10:42:16;4.30;;;2.40;;
68866;SDS011;56451;44.804;20.476;2023-10-09T10:45:01;3.05;;;1.80;;
68866;SDS011;56451;44.804;20.476;2023-10-09T10:47:30;2.88;;;1.70;;
68866;SDS011;56451;44.804;20.476;2023-10-09T10:50:02;5.30;;;2.00;;
68866;SDS011;56451;44.804;20.476;2023-10-09T10:52:47;3.92;;;1.58;;
68866;SDS011;56451;44.804;20.476;2023-10-09T10:55:23;2.65;;;1.33;;
68866;SDS011;56451;44.804;20.476;2023-10-09T10:58:01;3.58;;;1.83;;
68866;SDS011;56451;44.804;20.476;2023-10-09T11:00:35;6.07;;;1.92;;
68866;SDS011;56451;44.804;20.476;2023-10-09T11:03:20;6.60;;;2.07;;
68866;SDS011;56451;44.804;20.476;2023-10-09T11:06:01;3.35;;;1.50;;
68866;SDS011;56451;44.804;20.476;2023-10-09T11:08:44;4.75;;;1.75;;
68866;SDS011;56451;44.804;20.476;2023-10-09T11:11:19;4.85;;;1.70;;
68866;SDS011;56451;44.804;20.476;2023-10-09T11:13:46;3.58;;;1.55;;
68866;SDS011;56451;44.804;20.476;2023-10-09T11:16:19;3.27;;;1.17;;
68866;SDS011;56451;44.804;20.476;2023-10-09T11:19:06;3.53;;;1.50;;
68866;SDS011;56451;44.804;20.476;2023-10-09T11:21:49;3.67;;;1.30;;
68866;SDS011;56451;44.804;20.476;2023-10-09T11:24:27;4.03;;;1.75;;
68866;SDS011;56451;44.804;20.476;2023-10-09T11:26:58;5.32;;;1.58;;
68866;SDS011;56451;44.804;20.476;2023-10-09T11:29:31;1.97;;;1.33;;
68866;SDS011;56451;44.804;20.476;2023-10-09T11:32:17;5.30;;;1.50;;
68866;SDS011;56451;44.804;20.476;2023-10-09T11:34:47;5.15;;;1.60;;
68866;SDS011;56451;44.804;20.476;2023-10-09T11:37:18;6.20;;;1.70;;
68866;SDS011;56451;44.804;20.476;2023-10-09T11:40:27;2.90;;;1.83;;
68866;SDS011;56451;44.804;20.476;2023-10-09T11:43:02;3.63;;;1.53;;
68866;SDS011;56451;44.804;20.476;2023-10-09T11:45:29;2.72;;;1.42;;
68866;SDS011;56451;44.804;20.476;2023-10-09T11:47:57;3.40;;;1.60;;
68866;SDS011;56451;44.804;20.476;2023-10-09T11:53:27;6.47;;;1.75;;
68866;SDS011;56451;44.804;20.476;2023-10-09T11:55:53;5.47;;;1.70;;
68866;SDS011;56451;44.804;20.476;2023-10-09T11:58:19;4.15;;;1.38;;
68866;SDS011;56451;44.804;20.476;2023-10-09T12:03:29;2.38;;;1.48;;
68866;SDS011;56451;44.804;20.476;2023-10-09T12:05:56;3.10;;;1.30;;
68866;SDS011;56451;44.804;20.476;2023-10-09T12:08:25;3.13;;;1.60;;
68866;SDS011;56451;44.804;20.476;2023-10-09T12:10:54;3.15;;;1.45;;
68866;SDS011;56451;44.804;20.476;2023-10-09T12:13:22;2.97;;;1.30;;
68866;SDS011;56451;44.804;20.476;2023-10-09T12:15:49;3.50;;;1.48;;
68866;SDS011;56451;44.804;20.476;2023-10-09T12:18:18;3.15;;;1.45;;
68866;SDS011;56451;44.804;20.476;2023-10-09T12:20:45;4.23;;;1.53;;
68866;SDS011;56451;44.804;20.476;2023-10-09T12:23:18;2.83;;;1.52;;
68866;SDS011;56451;44.804;20.476;2023-10-09T12:25:45;4.53;;;1.60;;
68866;SDS011;56451;44.804;20.476;2023-10-09T12:28:13;4.22;;;1.45;;
68866;SDS011;56451;44.804;20.476;2023-10-09T12:30:39;4.40;;;1.50;;
68866;SDS011;56451;44.804;20.476;2023-10-09T12:33:07;2.20;;;1.50;;
68866;SDS011;56451;44.804;20.476;2023-10-09T12:35:37;4.15;;;1.50;;
68866;SDS011;56451;44.804;20.476;2023-10-09T12:38:04;3.55;;;1.63;;
68866;SDS011;56451;44.804;20.476;2023-10-09T12:40:40;4.80;;;1.52;;
68866;SDS011;56451;44.804;20.476;2023-10-09T12:43:09;3.10;;;1.63;;
68866;SDS011;56451;44.804;20.476;2023-10-09T12:45:42;2.50;;;1.43;;
68866;SDS011;56451;44.804;20.476;2023-10-09T12:48:08;3.13;;;1.73;;
68866;SDS011;56451;44.804;20.476;2023-10-09T12:50:35;3.85;;;1.90;;
68866;SDS011;56451;44.804;20.476;2023-10-09T12:53:07;5.60;;;2.42;;
68866;SDS011;56451;44.804;20.476;2023-10-09T12:55:37;3.07;;;1.80;;
68866;SDS011;56451;44.804;20.476;2023-10-09T12:58:12;4.13;;;1.88;;
68866;SDS011;56451;44.804;20.476;2023-10-09T13:00:43;3.50;;;1.80;;
68866;SDS011;56451;44.804;20.476;2023-10-09T13:03:10;4.93;;;1.80;;
68866;SDS011;56451;44.804;20.476;2023-10-09T13:05:43;6.75;;;1.88;;
68866;SDS011;56451;44.804;20.476;2023-10-09T13:08:24;5.03;;;2.07;;
68866;SDS011;56451;44.804;20.476;2023-10-09T13:11:04;3.63;;;2.53;;
68866;SDS011;56451;44.804;20.476;2023-10-09T13:13:42;6.00;;;2.70;;
68866;SDS011;56451;44.804;20.476;2023-10-09T13:16:13;7.40;;;3.10;;
68866;SDS011;56451;44.804;20.476;2023-10-09T13:18:51;9.38;;;4.93;;
68866;SDS011;56451;44.804;20.476;2023-10-09T13:21:21;15.77;;;8.50;;
68866;SDS011;56451;44.804;20.476;2023-10-09T13:23:57;14.38;;;8.95;;
68866;SDS011;56451;44.804;20.476;2023-10-09T13:26:23;26.48;;;12.93;;
68866;SDS011;56451;44.804;20.476;2023-10-09T13:28:54;24.50;;;9.55;;
68866;SDS011;56451;44.804;20.476;2023-10-09T13:31:21;26.08;;;10.82;;
68866;SDS011;56451;44.804;20.476;2023-10-09T13:33:51;12.63;;;6.27;;
68866;SDS011;56451;44.804;20.476;2023-10-09T13:36:23;16.83;;;8.20;;
68866;SDS011;56451;44.804;20.476;2023-10-09T13:38:55;38.63;;;12.88;;
68866;SDS011;56451;44.804;20.476;2023-10-09T13:41:22;34.35;;;11.35;;
68866;SDS011;56451;44.804;20.476;2023-10-09T13:43:53;161.60;;;61.35;;
68866;SDS011;56451;44.804;20.476;2023-10-09T13:46:20;394.30;;;154.77;;
68866;SDS011;56451;44.804;20.476;2023-10-09T13:48:46;1242.80;;;568.78;;
68866;SDS011;56451;44.804;20.476;2023-10-09T13:51:15;1655.80;;;637.40;;
68866;SDS011;56451;44.804;20.476;2023-10-09T13:53:44;1680.30;;;675.83;;
68866;SDS011;56451;44.804;20.476;2023-10-09T13:56:12;425.00;;;166.25;;
68866;SDS011;56451;44.804;20.476;2023-10-09T13:58:43;193.07;;;68.23;;
68866;SDS011;56451;44.804;20.476;2023-10-09T14:01:09;380.35;;;137.32;;
68866;SDS011;56451;44.804;20.476;2023-10-09T14:03:35;372.42;;;131.13;;
68866;SDS011;56451;44.804;20.476;2023-10-09T14:06:05;296.33;;;105.15;;
68866;SDS011;56451;44.804;20.476;2023-10-09T14:08:38;229.13;;;84.20;;
68866;SDS011;56451;44.804;20.476;2023-10-09T14:11:09;71.03;;;27.90;;
68866;SDS011;56451;44.804;20.476;2023-10-09T14:13:41;91.13;;;35.83;;
68866;SDS011;56451;44.804;20.476;2023-10-09T14:16:08;169.32;;;64.03;;
68866;SDS011;56451;44.804;20.476;2023-10-09T14:18:51;94.15;;;36.25;;
68866;SDS011;56451;44.804;20.476;2023-10-09T14:21:23;36.70;;;15.45;;
68866;SDS011;56451;44.804;20.476;2023-10-09T14:23:52;36.77;;;15.03;;
68866;SDS011;56451;44.804;20.476;2023-10-09T14:26:28;20.48;;;8.93;;
68866;SDS011;56451;44.804;20.476;2023-10-09T14:28:55;15.07;;;5.60;;
68866;SDS011;56451;44.804;20.476;2023-10-09T14:31:25;11.48;;;4.38;;
68866;SDS011;56451;44.804;20.476;2023-10-09T14:33:53;12.93;;;4.07;;
68866;SDS011;56451;44.804;20.476;2023-10-09T14:36:20;7.03;;;3.60;;
68866;SDS011;56451;44.804;20.476;2023-10-09T14:38:48;8.07;;;3.85;;
68866;SDS011;56451;44.804;20.476;2023-10-09T14:41:21;13.88;;;5.38;;
68866;SDS011;56451;44.804;20.476;2023-10-09T14:43:51;11.32;;;4.70;;
68866;SDS011;56451;44.804;20.476;2023-10-09T14:46:20;11.73;;;4.20;;
68866;SDS011;56451;44.804;20.476;2023-10-09T14:48:51;7.40;;;3.67;;
68866;SDS011;56451;44.804;20.476;2023-10-09T14:51:19;9.60;;;3.83;;
68866;SDS011;56451;44.804;20.476;2023-10-09T14:53:55;8.55;;;4.10;;
68866;SDS011;56451;44.804;20.476;2023-10-09T14:56:27;6.85;;;3.78;;
68866;SDS011;56451;44.804;20.476;2023-10-09T14:58:59;29.23;;;5.70;;
68866;SDS011;56451;44.804;20.476;2023-10-09T15:01:25;39.97;;;7.20;;
68866;SDS011;56451;44.804;20.476;2023-10-09T15:03:57;30.58;;;6.63;;
68866;SDS011;56451;44.804;20.476;2023-10-09T15:06:26;33.70;;;5.40;;
68866;SDS011;56451;44.804;20.476;2023-10-09T15:08:54;14.30;;;3.97;;
68866;SDS011;56451;44.804;20.476;2023-10-09T15:11:21;21.00;;;4.63;;
68866;SDS011;56451;44.804;20.476;2023-10-09T15:13:50;17.47;;;5.07;;
68866;SDS011;56451;44.804;20.476;2023-10-09T15:16:17;11.60;;;4.80;;
68866;SDS011;56451;44.804;20.476;2023-10-09T15:18:45;14.75;;;4.95;;
68866;SDS011;56451;44.804;20.476;2023-10-09T15:21:12;11.18;;;5.03;;
68866;SDS011;56451;44.804;20.476;2023-10-09T15:23:38;7.15;;;4.25;;
68866;SDS011;56451;44.804;20.476;2023-10-09T15:26:04;9.47;;;4.77;;
68866;SDS011;56451;44.804;20.476;2023-10-09T15:28:32;10.15;;;4.72;;
68866;SDS011;56451;44.804;20.476;2023-10-09T15:30:58;7.82;;;4.35;;
68866;SDS011;56451;44.804;20.476;2023-10-09T15:33:24;8.90;;;4.68;;
68866;SDS011;56451;44.804;20.476;2023-10-09T15:35:56;7.67;;;4.03;;
68866;SDS011;56451;44.804;20.476;2023-10-09T15:38:22;10.43;;;4.90;;
68866;SDS011;56451;44.804;20.476;2023-10-09T15:40:50;9.40;;;4.50;;